sensor_id;sensor_type;location;lat;lon;timestamp;pressure;altitude;pressure_sealevel;temperature
74060;BMP280;62414;53.436;8.828;2022-08-19T00:01:47;101293.16;;;19.62
74060;BMP280;62414;53.436;8.828;2022-08-19T00:04:16;101276.66;;;19.62
74060;BMP280;62414;53.436;8.828;2022-08-19T00:06:44;101270.69;;;19.63
74060;BMP280;62414;53.436;8.828;2022-08-19T00:09:11;101261.56;;;19.52
74060;BMP280;62414;53.436;8.828;2022-08-19T00:11:38;101263.34;;;19.55
74060;BMP280;62414;53.436;8.828;2022-08-19T00:14:04;101265.84;;;19.53
74060;BMP280;62414;53.436;8.828;2022-08-19T00:16:30;101265.28;;;19.49
74060;BMP280;62414;53.436;8.828;2022-08-19T00:18:56;101276.22;;;19.43
74060;BMP280;62414;53.436;8.828;2022-08-19T00:21:23;101273.41;;;19.38
74060;BMP280;62414;53.436;8.828;2022-08-19T00:23:49;101269.69;;;19.41
74060;BMP280;62414;53.436;8.828;2022-08-19T00:26:14;101264.34;;;19.31
74060;BMP280;62414;53.436;8.828;2022-08-19T00:28:40;101258.03;;;19.25
74060;BMP280;62414;53.436;8.828;2022-08-19T00:31:07;101261.13;;;19.33
74060;BMP280;62414;53.436;8.828;2022-08-19T00:33:33;101254.34;;;19.28
74060;BMP280;62414;53.436;8.828;2022-08-19T00:35:59;101250.84;;;19.28
74060;BMP280;62414;53.436;8.828;2022-08-19T00:38:27;101246.81;;;19.23
74060;BMP280;62414;53.436;8.828;2022-08-19T00:40:52;101242.66;;;19.33
74060;BMP280;62414;53.436;8.828;2022-08-19T00:43:20;101248.09;;;19.28
74060;BMP280;62414;53.436;8.828;2022-08-19T00:45:46;101251.84;;;19.30
74060;BMP280;62414;53.436;8.828;2022-08-19T00:48:11;101260.28;;;19.27
74060;BMP280;62414;53.436;8.828;2022-08-19T00:50:39;101253.50;;;19.22
74060;BMP280;62414;53.436;8.828;2022-08-19T00:53:04;101244.78;;;19.24
74060;BMP280;62414;53.436;8.828;2022-08-19T00:55:32;101241.78;;;19.22
74060;BMP280;62414;53.436;8.828;2022-08-19T00:58:00;101243.69;;;19.16
74060;BMP280;62414;53.436;8.828;2022-08-19T01:00:29;101249.19;;;19.16
74060;BMP280;62414;53.436;8.828;2022-08-19T01:02:54;101253.97;;;19.21
74060;BMP280;62414;53.436;8.828;2022-08-19T01:05:22;101257.28;;;19.25
74060;BMP280;62414;53.436;8.828;2022-08-19T01:07:49;101257.78;;;19.23
74060;BMP280;62414;53.436;8.828;2022-08-19T01:10:17;101260.84;;;19.11
74060;BMP280;62414;53.436;8.828;2022-08-19T01:12:46;101251.03;;;19.24
74060;BMP280;62414;53.436;8.828;2022-08-19T01:15:14;101249.31;;;19.27
74060;BMP280;62414;53.436;8.828;2022-08-19T01:17:41;101242.66;;;19.13
74060;BMP280;62414;53.436;8.828;2022-08-19T01:20:10;101239.22;;;19.18
74060;BMP280;62414;53.436;8.828;2022-08-19T01:22:43;101241.16;;;19.12
74060;BMP280;62414;53.436;8.828;2022-08-19T01:25:09;101245.97;;;19.17
74060;BMP280;62414;53.436;8.828;2022-08-19T01:27:38;101243.66;;;19.10
74060;BMP280;62414;53.436;8.828;2022-08-19T01:30:06;101241.34;;;19.09
74060;BMP280;62414;53.436;8.828;2022-08-19T01:32:32;101241.34;;;19.09
74060;BMP280;62414;53.436;8.828;2022-08-19T01:34:57;101230.38;;;19.09
74060;BMP280;62414;53.436;8.828;2022-08-19T01:37:23;101230.09;;;19.07
74060;BMP280;62414;53.436;8.828;2022-08-19T01:39:50;101221.19;;;19.12
74060;BMP280;62414;53.436;8.828;2022-08-19T01:42:15;101217.84;;;19.02
74060;BMP280;62414;53.436;8.828;2022-08-19T01:44:41;101222.00;;;18.97
74060;BMP280;62414;53.436;8.828;2022-08-19T01:47:07;101225.44;;;18.92
74060;BMP280;62414;53.436;8.828;2022-08-19T01:49:32;101215.72;;;18.91
74060;BMP280;62414;53.436;8.828;2022-08-19T01:51:59;101215.72;;;18.91
74060;BMP280;62414;53.436;8.828;2022-08-19T01:54:25;101212.00;;;18.94
74060;BMP280;62414;53.436;8.828;2022-08-19T01:56:53;101214.81;;;18.80
74060;BMP280;62414;53.436;8.828;2022-08-19T01:59:22;101219.09;;;18.81
74060;BMP280;62414;53.436;8.828;2022-08-19T02:01:48;101217.16;;;18.87
74060;BMP280;62414;53.436;8.828;2022-08-19T02:04:14;101211.19;;;18.88
74060;BMP280;62414;53.436;8.828;2022-08-19T02:06:39;101223.09;;;18.85
74060;BMP280;62414;53.436;8.828;2022-08-19T02:09:06;101210.63;;;18.84
74060;BMP280;62414;53.436;8.828;2022-08-19T02:11:33;101199.03;;;18.75
74060;BMP280;62414;53.436;8.828;2022-08-19T02:14:01;101194.31;;;18.75
74060;BMP280;62414;53.436;8.828;2022-08-19T02:16:26;101184.75;;;18.70
74060;BMP280;62414;53.436;8.828;2022-08-19T02:18:52;101190.94;;;18.65
74060;BMP280;62414;53.436;8.828;2022-08-19T02:21:19;101182.69;;;18.65
74060;BMP280;62414;53.436;8.828;2022-08-19T02:23:45;101179.72;;;18.63
74060;BMP280;62414;53.436;8.828;2022-08-19T02:26:11;101182.63;;;18.60
74060;BMP280;62414;53.436;8.828;2022-08-19T02:28:37;101183.38;;;18.60
74060;BMP280;62414;53.436;8.828;2022-08-19T02:31:08;101190.84;;;18.60
74060;BMP280;62414;53.436;8.828;2022-08-19T02:33:34;101193.81;;;18.56
74060;BMP280;62414;53.436;8.828;2022-08-19T02:36:03;101198.16;;;18.63
74060;BMP280;62414;53.436;8.828;2022-08-19T02:38:28;101200.22;;;18.68
74060;BMP280;62414;53.436;8.828;2022-08-19T02:40:56;101196.78;;;18.73
74060;BMP280;62414;53.436;8.828;2022-08-19T02:43:21;101193.09;;;18.76
74060;BMP280;62414;53.436;8.828;2022-08-19T02:45:47;101196.69;;;18.88
74060;BMP280;62414;53.436;8.828;2022-08-19T02:48:15;101185.47;;;18.86
74060;BMP280;62414;53.436;8.828;2022-08-19T02:50:40;101184.94;;;18.82
74060;BMP280;62414;53.436;8.828;2022-08-19T02:53:06;101183.69;;;18.83
74060;BMP280;62414;53.436;8.828;2022-08-19T02:55:31;101188.91;;;18.81
74060;BMP280;62414;53.436;8.828;2022-08-19T02:57:57;101191.94;;;18.83
74060;BMP280;62414;53.436;8.828;2022-08-19T03:00:22;101189.66;;;18.81
74060;BMP280;62414;53.436;8.828;2022-08-19T03:02:47;101174.66;;;18.77
74060;BMP280;62414;53.436;8.828;2022-08-19T03:05:14;101181.78;;;18.68
74060;BMP280;62414;53.436;8.828;2022-08-19T03:07:40;101180.25;;;18.67
74060;BMP280;62414;53.436;8.828;2022-08-19T03:10:06;101177.28;;;18.71
74060;BMP280;62414;53.436;8.828;2022-08-19T03:12:35;101178.06;;;18.72
74060;BMP280;62414;53.436;8.828;2022-08-19T03:15:01;101174.31;;;18.69
74060;BMP280;62414;53.436;8.828;2022-08-19T03:17:26;101176.28;;;18.68
74060;BMP280;62414;53.436;8.828;2022-08-19T03:19:51;101173.69;;;18.59
74060;BMP280;62414;53.436;8.828;2022-08-19T03:22:18;101174.41;;;18.60
74060;BMP280;62414;53.436;8.828;2022-08-19T03:24:44;101184.91;;;18.61
74060;BMP280;62414;53.436;8.828;2022-08-19T03:27:09;101183.09;;;18.73
74060;BMP280;62414;53.436;8.828;2022-08-19T03:29:37;101189.31;;;18.74
74060;BMP280;62414;53.436;8.828;2022-08-19T03:32:04;101186.06;;;18.75
74060;BMP280;62414;53.436;8.828;2022-08-19T03:34:31;101191.56;;;18.75
74060;BMP280;62414;53.436;8.828;2022-08-19T03:36:58;101188.25;;;18.71
74060;BMP280;62414;53.436;8.828;2022-08-19T03:39:26;101193.75;;;18.71
74060;BMP280;62414;53.436;8.828;2022-08-19T03:41:53;101194.91;;;18.64
74060;BMP280;62414;53.436;8.828;2022-08-19T03:44:20;101194.84;;;18.59
74060;BMP280;62414;53.436;8.828;2022-08-19T03:46:47;101192.66;;;18.63
74060;BMP280;62414;53.436;8.828;2022-08-19T03:49:13;101191.38;;;18.58
74060;BMP280;62414;53.436;8.828;2022-08-19T03:51:39;101203.84;;;18.59
74060;BMP280;62414;53.436;8.828;2022-08-19T03:54:07;101200.91;;;18.63
74060;BMP280;62414;53.436;8.828;2022-08-19T03:56:35;101199.66;;;18.64
74060;BMP280;62414;53.436;8.828;2022-08-19T03:59:01;101199.09;;;18.60
74060;BMP280;62414;53.436;8.828;2022-08-19T04:01:28;101203.34;;;18.61
74060;BMP280;62414;53.436;8.828;2022-08-19T04:03:54;101200.22;;;18.68
74060;BMP280;62414;53.436;8.828;2022-08-19T04:06:22;101208.06;;;18.60
74060;BMP280;62414;53.436;8.828;2022-08-19T04:08:50;101205.06;;;18.58
74060;BMP280;62414;53.436;8.828;2022-08-19T04:11:18;101206.38;;;18.63
74060;BMP280;62414;53.436;8.828;2022-08-19T04:13:45;101200.91;;;18.63
74060;BMP280;62414;53.436;8.828;2022-08-19T04:16:11;101205.63;;;18.62
74060;BMP280;62414;53.436;8.828;2022-08-19T04:18:37;101204.41;;;18.63
74060;BMP280;62414;53.436;8.828;2022-08-19T04:21:04;101206.69;;;18.70
74060;BMP280;62414;53.436;8.828;2022-08-19T04:23:30;101196.41;;;18.65
74060;BMP280;62414;53.436;8.828;2022-08-19T04:25:56;101199.38;;;18.62
74060;BMP280;62414;53.436;8.828;2022-08-19T04:28:22;101197.84;;;18.61
74060;BMP280;62414;53.436;8.828;2022-08-19T04:30:52;101198.16;;;18.63
74060;BMP280;62414;53.436;8.828;2022-08-19T04:33:20;101198.22;;;18.68
74060;BMP280;62414;53.436;8.828;2022-08-19T04:35:47;101203.44;;;18.66
74060;BMP280;62414;53.436;8.828;2022-08-19T04:38:13;101212.78;;;18.60
74060;BMP280;62414;53.436;8.828;2022-08-19T04:40:40;101212.88;;;18.65
74060;BMP280;62414;53.436;8.828;2022-08-19T04:43:05;101215.38;;;18.63
74060;BMP280;62414;53.436;8.828;2022-08-19T04:45:31;101216.66;;;18.68
74060;BMP280;62414;53.436;8.828;2022-08-19T04:47:58;101219.13;;;18.66
74060;BMP280;62414;53.436;8.828;2022-08-19T04:50:23;101223.28;;;18.61
74060;BMP280;62414;53.436;8.828;2022-08-19T04:52:50;101227.81;;;18.64
74060;BMP280;62414;53.436;8.828;2022-08-19T04:55:16;101235.88;;;18.68
74060;BMP280;62414;53.436;8.828;2022-08-19T04:57:41;101249.16;;;18.75
74060;BMP280;62414;53.436;8.828;2022-08-19T05:00:08;101248.47;;;18.80
74060;BMP280;62414;53.436;8.828;2022-08-19T05:02:33;101247.16;;;18.76
74060;BMP280;62414;53.436;8.828;2022-08-19T05:05:00;101236.63;;;18.68
74060;BMP280;62414;53.436;8.828;2022-08-19T05:07:26;101235.13;;;18.67
74060;BMP280;62414;53.436;8.828;2022-08-19T05:09:51;101234.72;;;18.60
74060;BMP280;62414;53.436;8.828;2022-08-19T05:12:17;101233.25;;;18.59
74060;BMP280;62414;53.436;8.828;2022-08-19T05:14:42;101229.25;;;18.60
74060;BMP280;62414;53.436;8.828;2022-08-19T05:17:08;101218.88;;;18.64
74060;BMP280;62414;53.436;8.828;2022-08-19T05:19:33;101223.28;;;18.61
74060;BMP280;62414;53.436;8.828;2022-08-19T05:22:00;101224.47;;;18.55
74060;BMP280;62414;53.436;8.828;2022-08-19T05:24:26;101240.66;;;18.53
74060;BMP280;62414;53.436;8.828;2022-08-19T05:26:53;101248.13;;;18.52
74060;BMP280;62414;53.436;8.828;2022-08-19T05:29:20;101256.13;;;18.56
74060;BMP280;62414;53.436;8.828;2022-08-19T05:31:47;101247.34;;;18.52
74060;BMP280;62414;53.436;8.828;2022-08-19T05:34:13;101242.91;;;18.54
74060;BMP280;62414;53.436;8.828;2022-08-19T05:36:40;101240.53;;;18.47
74060;BMP280;62414;53.436;8.828;2022-08-19T05:39:10;101242.81;;;18.49
74060;BMP280;62414;53.436;8.828;2022-08-19T05:41:35;101244.06;;;18.48
74060;BMP280;62414;53.436;8.828;2022-08-19T05:44:03;101241.84;;;18.52
74060;BMP280;62414;53.436;8.828;2022-08-19T05:46:29;101230.19;;;18.72
74060;BMP280;62414;53.436;8.828;2022-08-19T05:48:55;101238.69;;;18.74
74060;BMP280;62414;53.436;8.828;2022-08-19T05:51:20;101242.16;;;18.74
74060;BMP280;62414;53.436;8.828;2022-08-19T05:53:46;101242.72;;;18.78
74060;BMP280;62414;53.436;8.828;2022-08-19T05:56:14;101241.47;;;18.79
74060;BMP280;62414;53.436;8.828;2022-08-19T05:58:40;101242.22;;;18.80
74060;BMP280;62414;53.436;8.828;2022-08-19T06:01:10;101246.47;;;18.95
74060;BMP280;62414;53.436;8.828;2022-08-19T06:03:36;101233.28;;;18.99
74060;BMP280;62414;53.436;8.828;2022-08-19T06:06:02;101234.66;;;19.10
74060;BMP280;62414;53.436;8.828;2022-08-19T06:08:27;101235.03;;;19.02
74060;BMP280;62414;53.436;8.828;2022-08-19T06:10:53;101243.16;;;18.91
74060;BMP280;62414;53.436;8.828;2022-08-19T06:13:20;101242.63;;;18.87
74060;BMP280;62414;53.436;8.828;2022-08-19T06:15:46;101246.03;;;18.82
74060;BMP280;62414;53.436;8.828;2022-08-19T06:18:11;101248.34;;;18.89
74060;BMP280;62414;53.436;8.828;2022-08-19T06:20:37;101233.75;;;18.98
74060;BMP280;62414;53.436;8.828;2022-08-19T06:23:02;101240.53;;;19.02
74060;BMP280;62414;53.436;8.828;2022-08-19T06:25:27;101246.09;;;19.08
74060;BMP280;62414;53.436;8.828;2022-08-19T06:27:53;101248.75;;;19.23
74060;BMP280;62414;53.436;8.828;2022-08-19T06:30:20;101256.09;;;19.31
74060;BMP280;62414;53.436;8.828;2022-08-19T06:32:45;101241.47;;;19.40
74060;BMP280;62414;53.436;8.828;2022-08-19T06:35:11;101229.28;;;19.47
74060;BMP280;62414;53.436;8.828;2022-08-19T06:37:37;101246.34;;;19.51
74060;BMP280;62414;53.436;8.828;2022-08-19T06:40:03;101249.09;;;19.30
74060;BMP280;62414;53.436;8.828;2022-08-19T06:42:29;101249.72;;;19.40
74060;BMP280;62414;53.436;8.828;2022-08-19T06:44:55;101248.88;;;19.28
74060;BMP280;62414;53.436;8.828;2022-08-19T06:47:22;101245.13;;;19.11
74060;BMP280;62414;53.436;8.828;2022-08-19T06:49:47;101242.66;;;19.13
74060;BMP280;62414;53.436;8.828;2022-08-19T06:52:13;101248.69;;;19.38
74060;BMP280;62414;53.436;8.828;2022-08-19T06:54:39;101245.38;;;19.54
74060;BMP280;62414;53.436;8.828;2022-08-19T06:57:05;101255.97;;;19.66
74060;BMP280;62414;53.436;8.828;2022-08-19T06:59:31;101246.72;;;19.64
74060;BMP280;62414;53.436;8.828;2022-08-19T07:01:57;101257.53;;;19.73
74060;BMP280;62414;53.436;8.828;2022-08-19T07:04:25;101258.63;;;19.81
74060;BMP280;62414;53.436;8.828;2022-08-19T07:06:58;101262.97;;;19.93
74060;BMP280;62414;53.436;8.828;2022-08-19T07:09:24;101263.41;;;20.18
74060;BMP280;62414;53.436;8.828;2022-08-19T07:11:51;101266.09;;;20.12
74060;BMP280;62414;53.436;8.828;2022-08-19T07:14:19;101263.28;;;20.38
74060;BMP280;62414;53.436;8.828;2022-08-19T07:16:46;101270.91;;;20.60
74060;BMP280;62414;53.436;8.828;2022-08-19T07:19:12;101277.97;;;20.66
74060;BMP280;62414;53.436;8.828;2022-08-19T07:21:39;101273.34;;;20.84
74060;BMP280;62414;53.436;8.828;2022-08-19T07:24:04;101270.38;;;20.98
74060;BMP280;62414;53.436;8.828;2022-08-19T07:26:32;101271.38;;;21.01
74060;BMP280;62414;53.436;8.828;2022-08-19T07:28:58;101274.19;;;21.18
74060;BMP280;62414;53.436;8.828;2022-08-19T07:31:26;101276.69;;;21.21
74060;BMP280;62414;53.436;8.828;2022-08-19T07:33:53;101282.25;;;21.38
74060;BMP280;62414;53.436;8.828;2022-08-19T07:36:20;101275.47;;;21.33
74060;BMP280;62414;53.436;8.828;2022-08-19T07:38:49;101281.97;;;21.30
74060;BMP280;62414;53.436;8.828;2022-08-19T07:41:17;101284.00;;;21.35
74060;BMP280;62414;53.436;8.828;2022-08-19T07:43:43;101296.88;;;21.01
74060;BMP280;62414;53.436;8.828;2022-08-19T07:46:09;101293.00;;;21.25
74060;BMP280;62414;53.436;8.828;2022-08-19T07:48:35;101301.81;;;21.46
74060;BMP280;62414;53.436;8.828;2022-08-19T07:51:03;101303.09;;;21.61
74060;BMP280;62414;53.436;8.828;2022-08-19T07:53:30;101307.38;;;21.79
74060;BMP280;62414;53.436;8.828;2022-08-19T07:55:58;101313.88;;;21.70
74060;BMP280;62414;53.436;8.828;2022-08-19T07:58:23;101302.09;;;21.87
74060;BMP280;62414;53.436;8.828;2022-08-19T08:00:50;101307.38;;;21.79
74060;BMP280;62414;53.436;8.828;2022-08-19T08:03:17;101310.13;;;22.18
74060;BMP280;62414;53.436;8.828;2022-08-19T08:05:43;101319.63;;;22.39
74060;BMP280;62414;53.436;8.828;2022-08-19T08:08:09;101319.63;;;22.34
74060;BMP280;62414;53.436;8.828;2022-08-19T08:10:34;101314.38;;;22.14
74060;BMP280;62414;53.436;8.828;2022-08-19T08:13:01;101325.44;;;21.97
74060;BMP280;62414;53.436;8.828;2022-08-19T08:15:27;101330.41;;;21.82
74060;BMP280;62414;53.436;8.828;2022-08-19T08:17:52;101334.69;;;21.77
74060;BMP280;62414;53.436;8.828;2022-08-19T08:20:18;101335.19;;;21.64
74060;BMP280;62414;53.436;8.828;2022-08-19T08:22:44;101330.91;;;21.75
74060;BMP280;62414;53.436;8.828;2022-08-19T08:25:13;101337.94;;;21.92
74060;BMP280;62414;53.436;8.828;2022-08-19T08:27:40;101339.44;;;21.93
74060;BMP280;62414;53.436;8.828;2022-08-19T08:30:09;101343.47;;;22.15
74060;BMP280;62414;53.436;8.828;2022-08-19T08:32:35;101332.44;;;22.09
74060;BMP280;62414;53.436;8.828;2022-08-19T08:35:00;101342.75;;;22.09
74060;BMP280;62414;53.436;8.828;2022-08-19T08:37:26;101341.47;;;22.26
74060;BMP280;62414;53.436;8.828;2022-08-19T08:39:51;101346.75;;;22.24
74060;BMP280;62414;53.436;8.828;2022-08-19T08:42:20;101351.19;;;22.78
74060;BMP280;62414;53.436;8.828;2022-08-19T08:44:51;101350.38;;;22.88
74060;BMP280;62414;53.436;8.828;2022-08-19T08:47:20;101345.56;;;23.00
74060;BMP280;62414;53.436;8.828;2022-08-19T08:49:51;101336.44;;;23.16
74060;BMP280;62414;53.436;8.828;2022-08-19T08:52:21;101347.13;;;23.36
74060;BMP280;62414;53.436;8.828;2022-08-19T08:54:49;101340.91;;;23.30
74060;BMP280;62414;53.436;8.828;2022-08-19T08:57:18;101342.59;;;22.81
74060;BMP280;62414;53.436;8.828;2022-08-19T08:59:46;101342.63;;;22.75
74060;BMP280;62414;53.436;8.828;2022-08-19T09:02:12;101335.13;;;22.59
74060;BMP280;62414;53.436;8.828;2022-08-19T09:04:39;101333.09;;;22.71
74060;BMP280;62414;53.436;8.828;2022-08-19T09:07:23;101330.09;;;22.74
74060;BMP280;62414;53.436;8.828;2022-08-19T09:09:52;101336.59;;;22.77
74060;BMP280;62414;53.436;8.828;2022-08-19T09:12:23;101325.63;;;22.55
74060;BMP280;62414;53.436;8.828;2022-08-19T09:14:53;101331.16;;;22.49
74060;BMP280;62414;53.436;8.828;2022-08-19T09:17:23;101336.94;;;22.46
74060;BMP280;62414;53.436;8.828;2022-08-19T09:19:55;101334.97;;;22.35
74060;BMP280;62414;53.436;8.828;2022-08-19T09:22:22;101324.09;;;22.59
74060;BMP280;62414;53.436;8.828;2022-08-19T09:24:48;101331.66;;;22.59
74060;BMP280;62414;53.436;8.828;2022-08-19T09:27:13;101337.88;;;22.70
74060;BMP280;62414;53.436;8.828;2022-08-19T09:29:39;101335.91;;;22.49
74060;BMP280;62414;53.436;8.828;2022-08-19T09:32:04;101336.84;;;22.79
74060;BMP280;62414;53.436;8.828;2022-08-19T09:34:31;101342.50;;;23.09
74060;BMP280;62414;53.436;8.828;2022-08-19T09:36:58;101334.78;;;23.49
74060;BMP280;62414;53.436;8.828;2022-08-19T09:39:24;101333.84;;;23.70
74060;BMP280;62414;53.436;8.828;2022-08-19T09:41:49;101331.50;;;23.80
74060;BMP280;62414;53.436;8.828;2022-08-19T09:44:15;101327.38;;;23.68
74060;BMP280;62414;53.436;8.828;2022-08-19T09:46:40;101338.09;;;23.77
74060;BMP280;62414;53.436;8.828;2022-08-19T09:49:06;101328.06;;;24.04
74060;BMP280;62414;53.436;8.828;2022-08-19T09:51:32;101333.31;;;23.77
74060;BMP280;62414;53.436;8.828;2022-08-19T09:54:01;101334.53;;;23.82
74060;BMP280;62414;53.436;8.828;2022-08-19T09:56:28;101332.84;;;24.03
74060;BMP280;62414;53.436;8.828;2022-08-19T09:58:54;101338.78;;;24.13
74060;BMP280;62414;53.436;8.828;2022-08-19T10:01:22;101322.28;;;24.02
74060;BMP280;62414;53.436;8.828;2022-08-19T10:03:49;101320.28;;;24.27
74060;BMP280;62414;53.436;8.828;2022-08-19T10:06:15;101325.31;;;24.47
74060;BMP280;62414;53.436;8.828;2022-08-19T10:08:41;101325.81;;;24.02
74060;BMP280;62414;53.436;8.828;2022-08-19T10:11:08;101317.78;;;23.69
74060;BMP280;62414;53.436;8.828;2022-08-19T10:13:34;101319.78;;;23.68
74060;BMP280;62414;53.436;8.828;2022-08-19T10:16:04;101321.91;;;23.87
74060;BMP280;62414;53.436;8.828;2022-08-19T10:18:29;101326.16;;;24.18
74060;BMP280;62414;53.436;8.828;2022-08-19T10:21:05;101323.69;;;24.14
74060;BMP280;62414;53.436;8.828;2022-08-19T10:23:30;101313.47;;;24.03
74060;BMP280;62414;53.436;8.828;2022-08-19T10:25:59;101324.78;;;24.05
74060;BMP280;62414;53.436;8.828;2022-08-19T10:28:26;101316.84;;;24.21
74060;BMP280;62414;53.436;8.828;2022-08-19T10:30:51;101302.91;;;24.26
74060;BMP280;62414;53.436;8.828;2022-08-19T10:33:17;101305.81;;;24.39
74060;BMP280;62414;53.436;8.828;2022-08-19T10:35:42;101306.28;;;24.43
74060;BMP280;62414;53.436;8.828;2022-08-19T10:38:08;101299.59;;;24.33
74060;BMP280;62414;53.436;8.828;2022-08-19T10:40:33;101298.13;;;24.51
74060;BMP280;62414;53.436;8.828;2022-08-19T10:42:59;101300.44;;;24.71
74060;BMP280;62414;53.436;8.828;2022-08-19T10:45:25;101289.78;;;24.94
74060;BMP280;62414;53.436;8.828;2022-08-19T10:47:52;101289.19;;;25.01
74060;BMP280;62414;53.436;8.828;2022-08-19T10:50:17;101284.03;;;24.92
74060;BMP280;62414;53.436;8.828;2022-08-19T10:52:46;101282.28;;;25.08
74060;BMP280;62414;53.436;8.828;2022-08-19T10:55:12;101292.91;;;25.22
74060;BMP280;62414;53.436;8.828;2022-08-19T10:57:37;101299.56;;;25.33
74060;BMP280;62414;53.436;8.828;2022-08-19T11:00:03;101290.81;;;25.29
74060;BMP280;62414;53.436;8.828;2022-08-19T11:02:30;101291.50;;;25.16
74060;BMP280;62414;53.436;8.828;2022-08-19T11:04:56;101288.09;;;25.55
74060;BMP280;62414;53.436;8.828;2022-08-19T11:07:21;101286.97;;;25.64
74060;BMP280;62414;53.436;8.828;2022-08-19T11:09:47;101279.81;;;25.68
74060;BMP280;62414;53.436;8.828;2022-08-19T11:12:12;101279.50;;;25.98
74060;BMP280;62414;53.436;8.828;2022-08-19T11:14:38;101275.50;;;25.99
74060;BMP280;62414;53.436;8.828;2022-08-19T11:17:04;101277.09;;;26.08
74060;BMP280;62414;53.436;8.828;2022-08-19T11:19:31;101286.69;;;26.20
74060;BMP280;62414;53.436;8.828;2022-08-19T11:21:57;101282.84;;;26.23
74060;BMP280;62414;53.436;8.828;2022-08-19T11:24:24;101273.25;;;26.71
74060;BMP280;62414;53.436;8.828;2022-08-19T11:26:51;101281.28;;;26.75
74060;BMP280;62414;53.436;8.828;2022-08-19T11:29:20;101278.19;;;27.20
74060;BMP280;62414;53.436;8.828;2022-08-19T11:31:47;101277.97;;;27.38
74060;BMP280;62414;53.436;8.828;2022-08-19T11:34:16;101275.88;;;27.11
74060;BMP280;62414;53.436;8.828;2022-08-19T11:36:45;101283.63;;;27.04
74060;BMP280;62414;53.436;8.828;2022-08-19T11:39:13;101276.59;;;26.90
74060;BMP280;62414;53.436;8.828;2022-08-19T11:41:39;101285.03;;;27.19
74060;BMP280;62414;53.436;8.828;2022-08-19T11:44:05;101285.31;;;27.49
74060;BMP280;62414;53.436;8.828;2022-08-19T11:46:31;101286.03;;;27.70
74060;BMP280;62414;53.436;8.828;2022-08-19T11:48:57;101293.50;;;28.55
74060;BMP280;62414;53.436;8.828;2022-08-19T11:51:24;101286.66;;;28.79
74060;BMP280;62414;53.436;8.828;2022-08-19T11:53:51;101273.50;;;28.94
74060;BMP280;62414;53.436;8.828;2022-08-19T11:56:18;101287.41;;;28.72
74060;BMP280;62414;53.436;8.828;2022-08-19T11:58:44;101286.66;;;28.79
74060;BMP280;62414;53.436;8.828;2022-08-19T12:01:12;101288.94;;;29.41
74060;BMP280;62414;53.436;8.828;2022-08-19T12:03:38;101279.59;;;29.77
74060;BMP280;62414;53.436;8.828;2022-08-19T12:06:05;101286.84;;;30.60
74060;BMP280;62414;53.436;8.828;2022-08-19T12:08:30;101277.69;;;30.34
74060;BMP280;62414;53.436;8.828;2022-08-19T12:10:58;101281.16;;;30.10
74060;BMP280;62414;53.436;8.828;2022-08-19T12:13:23;101276.69;;;30.07
74060;BMP280;62414;53.436;8.828;2022-08-19T12:15:48;101274.81;;;30.49
74060;BMP280;62414;53.436;8.828;2022-08-19T12:18:14;101274.13;;;29.94
74060;BMP280;62414;53.436;8.828;2022-08-19T12:20:41;101276.75;;;29.92
74060;BMP280;62414;53.436;8.828;2022-08-19T12:23:08;101280.56;;;29.41
74060;BMP280;62414;53.436;8.828;2022-08-19T12:25:34;101271.28;;;29.23
74060;BMP280;62414;53.436;8.828;2022-08-19T12:28:01;101275.13;;;29.73
74060;BMP280;62414;53.436;8.828;2022-08-19T12:30:27;101277.03;;;29.63
74060;BMP280;62414;53.436;8.828;2022-08-19T12:32:52;101268.09;;;28.66
74060;BMP280;62414;53.436;8.828;2022-08-19T12:35:18;101267.19;;;28.94
74060;BMP280;62414;53.436;8.828;2022-08-19T12:37:44;101278.53;;;29.26
74060;BMP280;62414;53.436;8.828;2022-08-19T12:40:11;101275.88;;;28.60
74060;BMP280;62414;53.436;8.828;2022-08-19T12:42:36;101264.56;;;28.66
74060;BMP280;62414;53.436;8.828;2022-08-19T12:45:03;101266.44;;;28.19
74060;BMP280;62414;53.436;8.828;2022-08-19T12:47:29;101272.69;;;27.76
74060;BMP280;62414;53.436;8.828;2022-08-19T12:49:54;101260.03;;;27.96
74060;BMP280;62414;53.436;8.828;2022-08-19T12:52:20;101268.16;;;27.66
74060;BMP280;62414;53.436;8.828;2022-08-19T12:54:46;101268.53;;;28.27
74060;BMP280;62414;53.436;8.828;2022-08-19T12:57:11;101259.00;;;28.81
74060;BMP280;62414;53.436;8.828;2022-08-19T12:59:38;101265.34;;;29.35
74060;BMP280;62414;53.436;8.828;2022-08-19T13:02:05;101255.66;;;29.58
74060;BMP280;62414;53.436;8.828;2022-08-19T13:04:31;101246.59;;;30.63
74060;BMP280;62414;53.436;8.828;2022-08-19T13:06:57;101245.91;;;30.22
74060;BMP280;62414;53.436;8.828;2022-08-19T13:09:23;101247.44;;;30.08
74060;BMP280;62414;53.436;8.828;2022-08-19T13:11:48;101246.72;;;30.72
74060;BMP280;62414;53.436;8.828;2022-08-19T13:14:14;101251.56;;;31.83
74060;BMP280;62414;53.436;8.828;2022-08-19T13:16:39;101244.66;;;32.10
74060;BMP280;62414;53.436;8.828;2022-08-19T13:19:06;101245.16;;;31.73
74060;BMP280;62414;53.436;8.828;2022-08-19T13:21:32;101241.13;;;32.37
74060;BMP280;62414;53.436;8.828;2022-08-19T13:23:57;101249.69;;;32.12
74060;BMP280;62414;53.436;8.828;2022-08-19T13:26:23;101243.53;;;33.25
74060;BMP280;62414;53.436;8.828;2022-08-19T13:28:48;101250.59;;;33.16
74060;BMP280;62414;53.436;8.828;2022-08-19T13:31:15;101244.72;;;33.41
74060;BMP280;62414;53.436;8.828;2022-08-19T13:33:41;101262.13;;;33.30
74060;BMP280;62414;53.436;8.828;2022-08-19T13:36:08;101252.25;;;34.48
74060;BMP280;62414;53.436;8.828;2022-08-19T13:38:33;101250.94;;;34.71
74060;BMP280;62414;53.436;8.828;2022-08-19T13:41:04;101252.97;;;35.45
74060;BMP280;62414;53.436;8.828;2022-08-19T13:43:30;101251.00;;;35.81
74060;BMP280;62414;53.436;8.828;2022-08-19T13:45:55;101245.88;;;35.44
74060;BMP280;62414;53.436;8.828;2022-08-19T13:48:22;101235.22;;;35.43
74060;BMP280;62414;53.436;8.828;2022-08-19T13:50:48;101244.34;;;34.56
74060;BMP280;62414;53.436;8.828;2022-08-19T13:53:16;101242.88;;;35.52